sensor_id;sensor_type;location;lat;lon;timestamp;pressure;altitude;pressure_sealevel;temperature;humidity
45327;BME280;31062;49.678;24.560;2022-07-29T00:01:45;98554.09;;;18.47;76.90
45327;BME280;31062;49.678;24.560;2022-07-29T00:04:34;98551.38;;;18.21;77.89
45327;BME280;31062;49.678;24.560;2022-07-29T00:07:21;98570.69;;;18.15;78.57
45327;BME280;31062;49.678;24.560;2022-07-29T00:10:07;98475.88;;;17.47;79.01
45327;BME280;31062;49.678;24.560;2022-07-29T00:12:52;98560.28;;;18.18;79.15
45327;BME280;31062;49.678;24.560;2022-07-29T00:15:39;98554.91;;;18.22;79.22
45327;BME280;31062;49.678;24.560;2022-07-29T00:18:25;98501.72;;;17.71;79.45
45327;BME280;31062;49.678;24.560;2022-07-29T00:21:11;98562.78;;;18.25;79.81
45327;BME280;31062;49.678;24.560;2022-07-29T00:23:57;98545.75;;;18.21;79.65
45327;BME280;31062;49.678;24.560;2022-07-29T00:26:44;98451.22;;;17.58;79.73
45327;BME280;31062;49.678;24.560;2022-07-29T00:29:29;98549.69;;;18.30;79.47
45327;BME280;31062;49.678;24.560;2022-07-29T00:32:19;98547.84;;;18.34;79.65
45327;BME280;31062;49.678;24.560;2022-07-29T00:35:05;98552.53;;;18.44;79.76
45327;BME280;31062;49.678;24.560;2022-07-29T00:38:14;98546.09;;;18.55;79.65
45327;BME280;31062;49.678;24.560;2022-07-29T00:41:01;98540.47;;;18.68;79.41
45327;BME280;31062;49.678;24.560;2022-07-29T00:43:47;98548.38;;;18.72;78.72
45327;BME280;31062;49.678;24.560;2022-07-29T00:46:33;98391.13;;;17.61;78.39
45327;BME280;31062;49.678;24.560;2022-07-29T00:49:19;98392.34;;;17.58;78.71
45327;BME280;31062;49.678;24.560;2022-07-29T00:52:05;98483.28;;;18.21;79.10
45327;BME280;31062;49.678;24.560;2022-07-29T00:54:52;98545.47;;;18.56;79.01
45327;BME280;31062;49.678;24.560;2022-07-29T00:57:38;98562.94;;;18.55;79.35
45327;BME280;31062;49.678;24.560;2022-07-29T01:00:26;98376.56;;;17.50;79.09
45327;BME280;31062;49.678;24.560;2022-07-29T01:03:13;98373.56;;;17.60;79.30
45327;BME280;31062;49.678;24.560;2022-07-29T01:05:59;98532.03;;;18.82;78.95
45327;BME280;31062;49.678;24.560;2022-07-29T01:08:48;98539.41;;;18.89;78.50
45327;BME280;31062;49.678;24.560;2022-07-29T01:11:35;98382.81;;;17.90;78.09
45327;BME280;31062;49.678;24.560;2022-07-29T01:14:23;98400.78;;;18.12;77.94
45327;BME280;31062;49.678;24.560;2022-07-29T01:17:31;98530.13;;;19.00;77.71
45327;BME280;31062;49.678;24.560;2022-07-29T01:24:03;98525.16;;;18.85;77.88
45327;BME280;31062;49.678;24.560;2022-07-29T01:27:16;98531.94;;;18.66;77.99
45327;BME280;31062;49.678;24.560;2022-07-29T01:30:08;98390.47;;;17.48;77.96
45327;BME280;31062;49.678;24.560;2022-07-29T01:32:59;98529.75;;;18.38;78.21
45327;BME280;31062;49.678;24.560;2022-07-29T01:35:47;98503.66;;;18.21;78.55
45327;BME280;31062;49.678;24.560;2022-07-29T01:38:35;98521.31;;;18.24;78.57
45327;BME280;31062;49.678;24.560;2022-07-29T01:41:21;98514.78;;;18.19;78.75
45327;BME280;31062;49.678;24.560;2022-07-29T01:44:12;98430.47;;;17.76;78.58
45327;BME280;31062;49.678;24.560;2022-07-29T01:47:14;98518.41;;;18.35;78.51
45327;BME280;31062;49.678;24.560;2022-07-29T01:50:03;98537.44;;;18.23;78.57
45327;BME280;31062;49.678;24.560;2022-07-29T01:52:56;98417.59;;;17.71;78.50
45327;BME280;31062;49.678;24.560;2022-07-29T01:55:45;98380.72;;;17.49;78.08
45327;BME280;31062;49.678;24.560;2022-07-29T01:58:31;98495.44;;;18.25;77.96
45327;BME280;31062;49.678;24.560;2022-07-29T02:01:18;98478.19;;;18.17;77.71
45327;BME280;31062;49.678;24.560;2022-07-29T02:04:07;98386.75;;;17.58;77.73
45327;BME280;31062;49.678;24.560;2022-07-29T02:06:58;98513.53;;;18.50;77.69
45327;BME280;31062;49.678;24.560;2022-07-29T02:09:45;98537.69;;;18.55;77.85
45327;BME280;31062;49.678;24.560;2022-07-29T02:12:33;98369.81;;;17.55;77.64
45327;BME280;31062;49.678;24.560;2022-07-29T02:15:24;98522.28;;;18.56;77.80
45327;BME280;31062;49.678;24.560;2022-07-29T02:18:16;98510.34;;;18.55;77.58
45327;BME280;31062;49.678;24.560;2022-07-29T02:21:04;98509.59;;;18.55;77.54
45327;BME280;31062;49.678;24.560;2022-07-29T02:24:04;98514.78;;;18.47;77.59
45327;BME280;31062;49.678;24.560;2022-07-29T02:26:52;98356.06;;;17.34;77.41
45327;BME280;31062;49.678;24.560;2022-07-29T02:29:39;98479.97;;;18.24;77.48
45327;BME280;31062;49.678;24.560;2022-07-29T02:32:26;98507.72;;;18.46;77.27
45327;BME280;31062;49.678;24.560;2022-07-29T02:35:15;98500.84;;;18.49;77.10
45327;BME280;31062;49.678;24.560;2022-07-29T02:38:03;98509.25;;;18.49;76.80
45327;BME280;31062;49.678;24.560;2022-07-29T02:41:13;98506.25;;;18.45;77.01
45327;BME280;31062;49.678;24.560;2022-07-29T02:44:08;98507.72;;;18.32;76.91
45327;BME280;31062;49.678;24.560;2022-07-29T02:47:16;98512.78;;;18.08;77.24
45327;BME280;31062;49.678;24.560;2022-07-29T02:50:12;98478.34;;;17.67;77.96
45327;BME280;31062;49.678;24.560;2022-07-29T02:53:08;98506.84;;;17.75;78.39
45327;BME280;31062;49.678;24.560;2022-07-29T02:56:00;98511.41;;;17.82;78.92
45327;BME280;31062;49.678;24.560;2022-07-29T02:58:52;98347.63;;;16.68;78.76
45327;BME280;31062;49.678;24.560;2022-07-29T03:01:41;98393.69;;;17.04;78.93
45327;BME280;31062;49.678;24.560;2022-07-29T03:04:30;98342.13;;;16.70;78.64
45327;BME280;31062;49.678;24.560;2022-07-29T03:07:18;98353.91;;;16.68;78.39
45327;BME280;31062;49.678;24.560;2022-07-29T03:10:06;98517.59;;;17.67;79.29
45327;BME280;31062;49.678;24.560;2022-07-29T03:12:58;98511.19;;;17.52;79.62
45327;BME280;31062;49.678;24.560;2022-07-29T03:15:45;98523.31;;;17.43;80.04
45327;BME280;31062;49.678;24.560;2022-07-29T03:18:31;98516.03;;;17.38;80.42
45327;BME280;31062;49.678;24.560;2022-07-29T03:21:18;98492.28;;;17.14;80.50
45327;BME280;31062;49.678;24.560;2022-07-29T03:24:04;98516.81;;;17.27;81.04
45327;BME280;31062;49.678;24.560;2022-07-29T03:26:56;98358.56;;;16.27;80.77
45327;BME280;31062;49.678;24.560;2022-07-29T03:29:43;98478.34;;;17.16;80.98
45327;BME280;31062;49.678;24.560;2022-07-29T03:32:35;98508.16;;;17.48;81.10
45327;BME280;31062;49.678;24.560;2022-07-29T03:35:22;98353.72;;;16.53;80.59
45327;BME280;31062;49.678;24.560;2022-07-29T03:38:08;98467.47;;;17.47;80.49
45327;BME280;31062;49.678;24.560;2022-07-29T03:41:00;98499.78;;;18.01;80.02
45327;BME280;31062;49.678;24.560;2022-07-29T03:43:47;98507.31;;;18.10;79.68
45327;BME280;31062;49.678;24.560;2022-07-29T03:46:35;98514.38;;;18.11;79.09
45327;BME280;31062;49.678;24.560;2022-07-29T03:49:23;98505.72;;;18.07;78.83
45327;BME280;31062;49.678;24.560;2022-07-29T03:52:10;98505.97;;;18.11;78.87
45327;BME280;31062;49.678;24.560;2022-07-29T03:54:57;98463.84;;;17.84;79.22
45327;BME280;31062;49.678;24.560;2022-07-29T03:57:45;98507.91;;;18.09;78.75
45327;BME280;31062;49.678;24.560;2022-07-29T04:00:31;98515.41;;;18.04;78.81
45327;BME280;31062;49.678;24.560;2022-07-29T04:03:18;98398.50;;;17.15;79.12
45327;BME280;31062;49.678;24.560;2022-07-29T04:06:05;98360.19;;;16.81;79.44
45327;BME280;31062;49.678;24.560;2022-07-29T04:08:51;98490.34;;;17.55;79.68
45327;BME280;31062;49.678;24.560;2022-07-29T04:11:39;98552.03;;;17.81;80.22
45327;BME280;31062;49.678;24.560;2022-07-29T04:14:45;98440.25;;;17.36;80.15
45327;BME280;31062;49.678;24.560;2022-07-29T04:17:33;98500.09;;;17.93;79.99
45327;BME280;31062;49.678;24.560;2022-07-29T04:20:18;98331.69;;;16.84;79.83
45327;BME280;31062;49.678;24.560;2022-07-29T04:23:04;98442.31;;;17.61;79.40
45327;BME280;31062;49.678;24.560;2022-07-29T04:25:50;98353.03;;;17.03;79.18
45327;BME280;31062;49.678;24.560;2022-07-29T04:28:35;98504.38;;;18.08;79.14
45327;BME280;31062;49.678;24.560;2022-07-29T04:31:21;98506.97;;;18.04;79.19
45327;BME280;31062;49.678;24.560;2022-07-29T04:34:11;98500.81;;;17.94;79.44
45327;BME280;31062;49.678;24.560;2022-07-29T04:36:58;98505.69;;;17.93;79.82
45327;BME280;31062;49.678;24.560;2022-07-29T04:39:44;98507.69;;;17.91;79.87
45327;BME280;31062;49.678;24.560;2022-07-29T04:42:30;98503.31;;;17.88;79.27
45327;BME280;31062;49.678;24.560;2022-07-29T04:45:16;98521.59;;;17.89;79.31
45327;BME280;31062;49.678;24.560;2022-07-29T04:48:06;98495.00;;;17.90;79.20
45327;BME280;31062;49.678;24.560;2022-07-29T04:50:52;98481.69;;;17.77;79.56
45327;BME280;31062;49.678;24.560;2022-07-29T04:53:38;98348.44;;;16.96;79.35
45327;BME280;31062;49.678;24.560;2022-07-29T04:56:24;98501.91;;;18.14;79.39
45327;BME280;31062;49.678;24.560;2022-07-29T04:59:09;98467.72;;;18.04;79.58
45327;BME280;31062;49.678;24.560;2022-07-29T05:01:57;98340.94;;;17.39;78.99
45327;BME280;31062;49.678;24.560;2022-07-29T05:04:43;98499.59;;;18.79;78.81
45327;BME280;31062;49.678;24.560;2022-07-29T05:07:28;98491.19;;;19.08;78.10
45327;BME280;31062;49.678;24.560;2022-07-29T05:10:14;98503.75;;;19.37;76.53
45327;BME280;31062;49.678;24.560;2022-07-29T05:12:59;98496.88;;;19.53;75.34
45327;BME280;31062;49.678;24.560;2022-07-29T05:15:47;98499.31;;;19.61;74.77
45327;BME280;31062;49.678;24.560;2022-07-29T05:18:32;98364.38;;;18.71;73.96
45327;BME280;31062;49.678;24.560;2022-07-29T05:21:18;98493.16;;;19.80;74.18
45327;BME280;31062;49.678;24.560;2022-07-29T05:24:04;98502.69;;;20.05;74.35
45327;BME280;31062;49.678;24.560;2022-07-29T05:26:50;98495.50;;;20.33;73.31
45327;BME280;31062;49.678;24.560;2022-07-29T05:29:36;98334.25;;;19.48;72.76
45327;BME280;31062;49.678;24.560;2022-07-29T05:32:29;98327.56;;;19.73;72.04
45327;BME280;31062;49.678;24.560;2022-07-29T05:35:15;98345.34;;;20.11;70.82
45327;BME280;31062;49.678;24.560;2022-07-29T05:38:01;98478.53;;;21.33;69.92
45327;BME280;31062;49.678;24.560;2022-07-29T05:40:46;98489.38;;;21.58;69.56
45327;BME280;31062;49.678;24.560;2022-07-29T05:43:32;98356.41;;;20.73;68.56
45327;BME280;31062;49.678;24.560;2022-07-29T05:46:18;98490.88;;;21.79;68.50
45327;BME280;31062;49.678;24.560;2022-07-29T05:49:05;98336.59;;;20.71;68.15
45327;BME280;31062;49.678;24.560;2022-07-29T05:51:52;98361.44;;;20.95;68.33
45327;BME280;31062;49.678;24.560;2022-07-29T05:54:37;98412.31;;;21.16;68.04
45327;BME280;31062;49.678;24.560;2022-07-29T05:57:23;98495.50;;;22.28;67.46
45327;BME280;31062;49.678;24.560;2022-07-29T06:00:10;98498.28;;;22.48;66.69
45327;BME280;31062;49.678;24.560;2022-07-29T06:02:59;98497.78;;;22.73;65.79
45327;BME280;31062;49.678;24.560;2022-07-29T06:05:44;98353.69;;;21.90;64.59
45327;BME280;31062;49.678;24.560;2022-07-29T06:08:31;98351.38;;;22.04;63.19
45327;BME280;31062;49.678;24.560;2022-07-29T06:11:19;98497.53;;;23.08;62.72
45327;BME280;31062;49.678;24.560;2022-07-29T06:14:04;98390.03;;;22.41;62.82
45327;BME280;31062;49.678;24.560;2022-07-29T06:16:50;98377.94;;;22.38;61.72
45327;BME280;31062;49.678;24.560;2022-07-29T06:19:36;98495.78;;;23.43;62.11
45327;BME280;31062;49.678;24.560;2022-07-29T06:22:22;98504.31;;;23.67;59.99
45327;BME280;31062;49.678;24.560;2022-07-29T06:25:08;98511.19;;;23.83;61.94
45327;BME280;31062;49.678;24.560;2022-07-29T06:27:55;98481.44;;;23.82;62.46
45327;BME280;31062;49.678;24.560;2022-07-29T06:30:40;98519.13;;;24.36;59.57
45327;BME280;31062;49.678;24.560;2022-07-29T06:33:26;98385.34;;;23.63;59.44
45327;BME280;31062;49.678;24.560;2022-07-29T06:36:11;98491.94;;;24.53;58.64
45327;BME280;31062;49.678;24.560;2022-07-29T06:38:58;98512.56;;;24.84;58.34
45327;BME280;31062;49.678;24.560;2022-07-29T06:41:50;98452.19;;;24.51;57.21
45327;BME280;31062;49.678;24.560;2022-07-29T06:44:36;98452.34;;;24.57;56.72
45327;BME280;31062;49.678;24.560;2022-07-29T06:47:22;98503.56;;;24.91;57.18
45327;BME280;31062;49.678;24.560;2022-07-29T06:50:08;98496.50;;;24.92;56.03
45327;BME280;31062;49.678;24.560;2022-07-29T06:52:56;98497.13;;;24.89;55.38
45327;BME280;31062;49.678;24.560;2022-07-29T06:55:42;98385.50;;;24.18;53.46
45327;BME280;31062;49.678;24.560;2022-07-29T06:58:28;98400.63;;;24.29;52.65
45327;BME280;31062;49.678;24.560;2022-07-29T07:01:14;98504.78;;;25.12;53.63
45327;BME280;31062;49.678;24.560;2022-07-29T07:04:01;98500.78;;;25.23;52.53
45327;BME280;31062;49.678;24.560;2022-07-29T07:06:46;98498.28;;;25.37;52.91
45327;BME280;31062;49.678;24.560;2022-07-29T07:09:31;98369.66;;;24.65;52.12
45327;BME280;31062;49.678;24.560;2022-07-29T07:12:24;98444.13;;;25.27;49.79
45327;BME280;31062;49.678;24.560;2022-07-29T07:15:10;98455.88;;;25.43;48.69
45327;BME280;31062;49.678;24.560;2022-07-29T07:17:56;98498.81;;;25.91;47.65
45327;BME280;31062;49.678;24.560;2022-07-29T07:20:42;98498.50;;;26.11;48.31
45327;BME280;31062;49.678;24.560;2022-07-29T07:23:28;98412.94;;;25.59;49.57
45327;BME280;31062;49.678;24.560;2022-07-29T07:26:14;98503.13;;;26.28;51.33
45327;BME280;31062;49.678;24.560;2022-07-29T07:29:00;98499.13;;;26.41;51.14
45327;BME280;31062;49.678;24.560;2022-07-29T07:31:46;98510.03;;;26.55;50.61
45327;BME280;31062;49.678;24.560;2022-07-29T07:34:32;98500.13;;;26.58;50.30
45327;BME280;31062;49.678;24.560;2022-07-29T07:37:21;98492.44;;;26.65;49.03
45327;BME280;31062;49.678;24.560;2022-07-29T07:40:09;98505.47;;;26.78;49.08
45327;BME280;31062;49.678;24.560;2022-07-29T07:43:03;98470.84;;;26.50;48.34
45327;BME280;31062;49.678;24.560;2022-07-29T07:45:49;98511.16;;;26.78;48.98
45327;BME280;31062;49.678;24.560;2022-07-29T07:48:35;98495.59;;;26.83;49.24
45327;BME280;31062;49.678;24.560;2022-07-29T07:51:21;98519.88;;;26.88;48.39
45327;BME280;31062;49.678;24.560;2022-07-29T07:54:07;98507.88;;;26.94;49.22
45327;BME280;31062;49.678;24.560;2022-07-29T07:56:53;98506.34;;;26.87;48.38
45327;BME280;31062;49.678;24.560;2022-07-29T07:59:40;98512.53;;;26.75;47.66
45327;BME280;31062;49.678;24.560;2022-07-29T08:02:27;98518.13;;;26.69;48.98
45327;BME280;31062;49.678;24.560;2022-07-29T08:05:13;98396.88;;;25.72;47.43
45327;BME280;31062;49.678;24.560;2022-07-29T08:08:02;98393.88;;;25.64;47.07
45327;BME280;31062;49.678;24.560;2022-07-29T08:10:47;98512.59;;;26.39;46.97
45327;BME280;31062;49.678;24.560;2022-07-29T08:13:40;98515.59;;;26.49;47.48
45327;BME280;31062;49.678;24.560;2022-07-29T08:16:27;98509.34;;;26.57;47.64
45327;BME280;31062;49.678;24.560;2022-07-29T08:19:15;98519.63;;;26.74;47.44
45327;BME280;31062;49.678;24.560;2022-07-29T08:22:01;98475.31;;;26.61;46.74
45327;BME280;31062;49.678;24.560;2022-07-29T08:24:46;98495.78;;;26.91;47.46
45327;BME280;31062;49.678;24.560;2022-07-29T08:27:39;98521.75;;;27.13;46.84
45327;BME280;31062;49.678;24.560;2022-07-29T08:30:28;98412.34;;;26.36;45.84
45327;BME280;31062;49.678;24.560;2022-07-29T08:33:14;98521.63;;;27.07;45.38
45327;BME280;31062;49.678;24.560;2022-07-29T08:36:00;98403.38;;;26.14;46.31
45327;BME280;31062;49.678;24.560;2022-07-29T08:38:46;98413.59;;;26.27;46.75
45327;BME280;31062;49.678;24.560;2022-07-29T08:41:32;98390.53;;;26.11;46.21
45327;BME280;31062;49.678;24.560;2022-07-29T08:44:18;98487.09;;;26.85;47.17
45327;BME280;31062;49.678;24.560;2022-07-29T08:47:16;98511.75;;;27.10;47.09
45327;BME280;31062;49.678;24.560;2022-07-29T08:50:04;98514.66;;;27.14;46.72
45327;BME280;31062;49.678;24.560;2022-07-29T08:52:51;98510.31;;;27.09;47.58
45327;BME280;31062;49.678;24.560;2022-07-29T08:55:45;98507.41;;;27.07;48.30
45327;BME280;31062;49.678;24.560;2022-07-29T08:58:33;98488.69;;;26.94;48.18
45327;BME280;31062;49.678;24.560;2022-07-29T09:01:25;98511.03;;;27.12;48.55
45327;BME280;31062;49.678;24.560;2022-07-29T09:04:33;98512.47;;;27.11;47.34
45327;BME280;31062;49.678;24.560;2022-07-29T09:07:19;98504.34;;;26.93;47.66
45327;BME280;31062;49.678;24.560;2022-07-29T09:10:05;98441.19;;;26.61;48.77
45327;BME280;31062;49.678;24.560;2022-07-29T09:12:54;98504.72;;;27.17;47.87
45327;BME280;31062;49.678;24.560;2022-07-29T09:15:40;98518.06;;;27.07;47.31
45327;BME280;31062;49.678;24.560;2022-07-29T09:21:20;98400.97;;;26.36;47.83
45327;BME280;31062;49.678;24.560;2022-07-29T09:24:38;98402.53;;;26.46;47.13
45327;BME280;31062;49.678;24.560;2022-07-29T09:27:26;98511.84;;;27.18;47.67
45327;BME280;31062;49.678;24.560;2022-07-29T09:30:13;98490.13;;;26.95;46.97
45327;BME280;31062;49.678;24.560;2022-07-29T09:33:10;98497.53;;;27.12;47.45
45327;BME280;31062;49.678;24.560;2022-07-29T09:36:03;98500.38;;;27.12;48.43
45327;BME280;31062;49.678;24.560;2022-07-29T09:39:01;98495.41;;;27.13;48.32
45327;BME280;31062;49.678;24.560;2022-07-29T09:44:49;98372.44;;;26.30;48.23
45327;BME280;31062;49.678;24.560;2022-07-29T09:47:46;98499.13;;;27.21;47.83
45327;BME280;31062;49.678;24.560;2022-07-29T09:50:42;98502.78;;;27.28;47.51
45327;BME280;31062;49.678;24.560;2022-07-29T09:53:34;98460.53;;;27.10;48.05
45327;BME280;31062;49.678;24.560;2022-07-29T09:56:37;98364.13;;;26.42;47.38
45327;BME280;31062;49.678;24.560;2022-07-29T09:59:24;98471.56;;;27.34;47.71
45327;BME280;31062;49.678;24.560;2022-07-29T10:02:14;98477.94;;;27.33;47.55
45327;BME280;31062;49.678;24.560;2022-07-29T10:08:07;98483.78;;;27.43;47.85
45327;BME280;31062;49.678;24.560;2022-07-29T10:11:17;98488.16;;;27.50;46.63
45327;BME280;31062;49.678;24.560;2022-07-29T10:14:17;98471.13;;;27.54;47.52
45327;BME280;31062;49.678;24.560;2022-07-29T10:17:06;98465.53;;;27.60;48.18
45327;BME280;31062;49.678;24.560;2022-07-29T10:19:57;98462.84;;;27.72;47.79
45327;BME280;31062;49.678;24.560;2022-07-29T10:22:44;98358.09;;;27.12;47.47
45327;BME280;31062;49.678;24.560;2022-07-29T10:25:39;98448.81;;;27.88;46.80
45327;BME280;31062;49.678;24.560;2022-07-29T10:28:32;98325.28;;;27.03;46.58
45327;BME280;31062;49.678;24.560;2022-07-29T10:31:30;98448.97;;;28.02;46.03
45327;BME280;31062;49.678;24.560;2022-07-29T10:44:20;98440.78;;;28.33;44.92
45327;BME280;31062;49.678;24.560;2022-07-29T10:47:29;98440.09;;;28.36;45.31
45327;BME280;31062;49.678;24.560;2022-07-29T10:50:17;98439.44;;;28.40;45.44
45327;BME280;31062;49.678;24.560;2022-07-29T10:53:06;98434.47;;;28.40;44.67
45327;BME280;31062;49.678;24.560;2022-07-29T10:55:59;98423.72;;;28.37;44.45
45327;BME280;31062;49.678;24.560;2022-07-29T11:06:05;98428.06;;;28.44;47.05
45327;BME280;31062;49.678;24.560;2022-07-29T11:09:16;98428.16;;;28.52;46.37
45327;BME280;31062;49.678;24.560;2022-07-29T11:15:25;98416.91;;;28.70;44.58
45327;BME280;31062;49.678;24.560;2022-07-29T11:18:19;98406.97;;;28.73;44.56
45327;BME280;31062;49.678;24.560;2022-07-29T11:21:38;98418.44;;;28.77;43.87
45327;BME280;31062;49.678;24.560;2022-07-29T11:24:43;98361.06;;;28.41;44.24
45327;BME280;31062;49.678;24.560;2022-07-29T11:27:39;98424.16;;;28.81;44.09
45327;BME280;31062;49.678;24.560;2022-07-29T11:30:51;98412.72;;;28.77;43.94
45327;BME280;31062;49.678;24.560;2022-07-29T11:33:45;98411.94;;;28.73;43.78
45327;BME280;31062;49.678;24.560;2022-07-29T11:42:49;98407.03;;;28.77;45.65
45327;BME280;31062;49.678;24.560;2022-07-29T11:45:48;98398.53;;;28.88;44.86
45327;BME280;31062;49.678;24.560;2022-07-29T11:48:42;98372.81;;;28.81;44.58
45327;BME280;31062;49.678;24.560;2022-07-29T11:51:31;98404.34;;;29.02;43.02
45327;BME280;31062;49.678;24.560;2022-07-29T11:54:24;98362.84;;;28.83;43.00
45327;BME280;31062;49.678;24.560;2022-07-29T11:57:17;98397.19;;;29.03;44.00
45327;BME280;31062;49.678;24.560;2022-07-29T12:00:07;98390.84;;;29.10;43.94
45327;BME280;31062;49.678;24.560;2022-07-29T12:03:10;98385.13;;;29.14;43.13
45327;BME280;31062;49.678;24.560;2022-07-29T12:06:00;98380.16;;;29.13;43.36
45327;BME280;31062;49.678;24.560;2022-07-29T12:08:46;98387.31;;;29.18;42.59
45327;BME280;31062;49.678;24.560;2022-07-29T12:11:33;98364.38;;;29.04;43.86
45327;BME280;31062;49.678;24.560;2022-07-29T12:14:30;98261.97;;;28.39;45.15
45327;BME280;31062;49.678;24.560;2022-07-29T12:17:30;98375.94;;;29.28;44.10
45327;BME280;31062;49.678;24.560;2022-07-29T12:20:28;98370.25;;;29.30;42.24
45327;BME280;31062;49.678;24.560;2022-07-29T12:23:15;98381.75;;;29.36;43.12
45327;BME280;31062;49.678;24.560;2022-07-29T12:26:05;98344.44;;;29.06;42.64
45327;BME280;31062;49.678;24.560;2022-07-29T12:29:06;98378.88;;;29.38;41.72
45327;BME280;31062;49.678;24.560;2022-07-29T12:32:00;98369.59;;;29.38;41.37
45327;BME280;31062;49.678;24.560;2022-07-29T12:34:50;98371.75;;;29.37;43.00
45327;BME280;31062;49.678;24.560;2022-07-29T12:37:38;98368.94;;;29.43;44.21
45327;BME280;31062;49.678;24.560;2022-07-29T12:40:28;98367.53;;;29.48;44.07
45327;BME280;31062;49.678;24.560;2022-07-29T12:43:23;98361.81;;;29.50;43.64
45327;BME280;31062;49.678;24.560;2022-07-29T12:46:15;98363.25;;;29.49;43.57
45327;BME280;31062;49.678;24.560;2022-07-29T12:49:03;98358.97;;;29.48;41.58
45327;BME280;31062;49.678;24.560;2022-07-29T12:51:51;98355.38;;;29.48;43.51
45327;BME280;31062;49.678;24.560;2022-07-29T12:54:46;98341.06;;;29.42;43.15
45327;BME280;31062;49.678;24.560;2022-07-29T12:57:47;98360.38;;;29.51;43.22
45327;BME280;31062;49.678;24.560;2022-07-29T13:00:37;98363.22;;;29.47;40.85
45327;BME280;31062;49.678;24.560;2022-07-29T13:03:24;98354.66;;;29.45;41.06
45327;BME280;31062;49.678;24.560;2022-07-29T13:09:19;98081.53;;;27.24;40.71
45327;BME280;31062;49.678;24.560;2022-07-29T13:12:12;98334.63;;;29.35;41.16
45327;BME280;31062;49.678;24.560;2022-07-29T13:14:59;98340.25;;;29.27;40.70
45327;BME280;31062;49.678;24.560;2022-07-29T13:17:49;98334.56;;;29.25;42.66
45327;BME280;31062;49.678;24.560;2022-07-29T13:20:49;98336.69;;;29.25;47.20
45327;BME280;31062;49.678;24.560;2022-07-29T13:23:39;98325.22;;;29.20;49.04
45327;BME280;31062;49.678;24.560;2022-07-29T13:26:39;98325.22;;;29.12;48.81
45327;BME280;31062;49.678;24.560;2022-07-29T13:29:29;98290.00;;;28.73;50.34
45327;BME280;31062;49.678;24.560;2022-07-29T13:32:16;98337.22;;;28.93;49.86
45327;BME280;31062;49.678;24.560;2022-07-29T13:35:14;98324.34;;;28.88;49.97
45327;BME280;31062;49.678;24.560;2022-07-29T13:38:03;98321.44;;;28.79;50.44
45327;BME280;31062;49.678;24.560;2022-07-29T13:40:51;98325.72;;;28.76;50.65
45327;BME280;31062;49.678;24.560;2022-07-29T13:43:46;98320.66;;;28.73;51.26
45327;BME280;31062;49.678;24.560;2022-07-29T13:46:37;98324.22;;;28.71;51.63
45327;BME280;31062;49.678;24.560;2022-07-29T13:49:26;98297.72;;;28.57;50.70
45327;BME280;31062;49.678;24.560;2022-07-29T13:52:17;98317.03;;;28.66;50.03
45327;BME280;31062;49.678;24.560;2022-07-29T13:55:30;98309.75;;;28.45;50.23
45327;BME280;31062;49.678;24.560;2022-07-29T13:58:17;98285.44;;;28.34;50.59
45327;BME280;31062;49.678;24.560;2022-07-29T14:01:07;98309.09;;;28.53;51.34
45327;BME280;31062;49.678;24.560;2022-07-29T14:03:55;98308.38;;;28.54;50.87
45327;BME280;31062;49.678;24.560;2022-07-29T14:06:44;98307.03;;;28.59;50.17
45327;BME280;31062;49.678;24.560;2022-07-29T14:09:44;98304.91;;;28.64;50.07
45327;BME280;31062;49.678;24.560;2022-07-29T14:12:32;98305.66;;;28.70;50.66
45327;BME280;31062;49.678;24.560;2022-07-29T14:15:19;98294.31;;;28.74;50.17
45327;BME280;31062;49.678;24.560;2022-07-29T14:18:11;98290.06;;;28.79;50.99
45327;BME280;31062;49.678;24.560;2022-07-29T14:20:59;98291.50;;;28.80;49.50
45327;BME280;31062;49.678;24.560;2022-07-29T14:23:47;98294.38;;;28.83;50.67
45327;BME280;31062;49.678;24.560;2022-07-29T14:26:34;98294.38;;;28.83;50.39
45327;BME280;31062;49.678;24.560;2022-07-29T14:29:20;98301.50;;;28.84;50.76
45327;BME280;31062;49.678;24.560;2022-07-29T14:32:08;98304.34;;;28.81;51.37
45327;BME280;31062;49.678;24.560;2022-07-29T14:34:57;98300.06;;;28.85;51.16
45327;BME280;31062;49.678;24.560;2022-07-29T14:38:09;98304.34;;;28.86;51.74
45327;BME280;31062;49.678;24.560;2022-07-29T14:40:57;98287.97;;;28.86;51.30
45327;BME280;31062;49.678;24.560;2022-07-29T14:43:45;98284.41;;;28.84;50.93
45327;BME280;31062;49.678;24.560;2022-07-29T14:46:33;98281.53;;;28.81;51.36
45327;BME280;31062;49.678;24.560;2022-07-29T14:49:19;98270.09;;;28.81;50.39
45327;BME280;31062;49.678;24.560;2022-07-29T14:52:07;98268.63;;;28.74;49.74
45327;BME280;31062;49.678;24.560;2022-07-29T14:54:55;98274.38;;;28.80;51.67
45327;BME280;31062;49.678;24.560;2022-07-29T14:57:43;98238.53;;;28.51;51.35
45327;BME280;31062;49.678;24.560;2022-07-29T15:00:30;98250.63;;;28.48;51.95
45327;BME280;31062;49.678;24.560;2022-07-29T15:03:19;98265.66;;;28.58;51.75
45327;BME280;31062;49.678;24.560;2022-07-29T15:06:09;98269.94;;;28.61;52.70
45327;BME280;31062;49.678;24.560;2022-07-29T15:08:57;98265.59;;;28.50;53.69
45327;BME280;31062;49.678;24.560;2022-07-29T15:11:45;98259.78;;;28.30;53.60
45327;BME280;31062;49.678;24.560;2022-07-29T15:14:34;98265.97;;;28.10;53.92
45327;BME280;31062;49.678;24.560;2022-07-29T15:17:22;98259.38;;;27.89;54.47
45327;BME280;31062;49.678;24.560;2022-07-29T15:20:09;98257.78;;;27.72;54.42
45327;BME280;31062;49.678;24.560;2022-07-29T15:22:56;98269.03;;;27.56;54.22
45327;BME280;31062;49.678;24.560;2022-07-29T15:25:43;98141.22;;;26.58;54.31
45327;BME280;31062;49.678;24.560;2022-07-29T15:28:29;98257.38;;;27.34;54.97
45327;BME280;31062;49.678;24.560;2022-07-29T15:31:19;98267.28;;;27.31;54.93